createdAt,value
2022-09-20T00:01:21.107Z,2.00
2022-09-20T00:03:54.446Z,2.00
2022-09-20T00:06:24.266Z,1.70
2022-09-20T00:08:51.581Z,2.03
2022-09-20T00:11:23.995Z,1.92
2022-09-20T00:13:53.232Z,2.30
2022-09-20T00:16:23.779Z,2.10
2022-09-20T00:18:53.041Z,1.88
2022-09-20T00:21:23.382Z,1.80
2022-09-20T00:23:52.667Z,2.08
2022-09-20T00:26:20.252Z,1.63
2022-09-20T00:28:47.734Z,2.08
2022-09-20T00:31:16.034Z,2.13
2022-09-20T00:34:02.323Z,2.03
2022-09-20T00:36:30.204Z,2.10
2022-09-20T00:38:59.600Z,2.10
2022-09-20T00:41:28.427Z,2.00
2022-09-20T00:43:56.012Z,2.15
2022-09-20T00:46:37.672Z,2.08
2022-09-20T00:49:20.461Z,2.10
2022-09-20T00:51:52.430Z,2.22
2022-09-20T00:54:21.533Z,2.00
2022-09-20T00:56:49.477Z,2.13
2022-09-20T00:59:27.289Z,2.20
2022-09-20T01:02:00.990Z,2.08
2022-09-20T01:04:29.873Z,2.15
2022-09-20T01:07:02.338Z,2.08
2022-09-20T01:09:29.603Z,2.17
2022-09-20T01:12:02.159Z,2.28
2022-09-20T01:14:29.851Z,2.45
2022-09-20T01:17:02.334Z,2.17
2022-09-20T01:20:04.474Z,2.00
2022-09-20T01:22:55.558Z,1.90
2022-09-20T01:26:00.295Z,1.95
2022-09-20T01:28:29.253Z,1.92
2022-09-20T01:31:21.140Z,1.80
2022-09-20T01:33:59.875Z,2.03
2022-09-20T01:36:34.347Z,2.30
2022-09-20T01:39:11.066Z,1.80
2022-09-20T01:41:56.970Z,1.95
2022-09-20T01:44:56.373Z,2.13
2022-09-20T01:47:38.059Z,3.47
2022-09-20T01:50:14.097Z,2.03
2022-09-20T01:52:50.259Z,2.20
2022-09-20T01:55:28.739Z,2.10
2022-09-20T01:58:08.046Z,2.47
2022-09-20T02:00:53.742Z,2.55
2022-09-20T02:03:49.641Z,1.65
2022-09-20T02:06:46.029Z,2.30
2022-09-20T02:09:31.837Z,2.30
2022-09-20T02:12:33.392Z,2.10
2022-09-20T02:15:31.692Z,2.10
2022-09-20T02:18:45.318Z,2.25
2022-09-20T02:21:36.785Z,2.42
2022-09-20T02:24:30.120Z,2.10
2022-09-20T02:29:56.634Z,2.13
2022-09-20T02:32:32.926Z,2.22
2022-09-20T02:35:32.803Z,2.00
2022-09-20T02:38:25.686Z,2.00
2022-09-20T02:41:07.960Z,2.40
2022-09-20T02:43:52.969Z,2.00
2022-09-20T02:46:30.476Z,2.22
2022-09-20T02:49:19.461Z,2.20
2022-09-20T02:51:56.906Z,2.30
2022-09-20T02:54:46.108Z,2.20
2022-09-20T02:57:21.397Z,2.22
2022-09-20T02:59:58.584Z,2.28
2022-09-20T03:02:52.130Z,2.00
2022-09-20T03:05:24.058Z,2.30
2022-09-20T03:08:02.908Z,1.85
2022-09-20T03:10:50.438Z,2.10
2022-09-20T03:13:43.528Z,2.03
2022-09-20T03:16:19.794Z,2.30
2022-09-20T03:18:57.113Z,2.28
2022-09-20T03:22:04.493Z,2.25
2022-09-20T03:25:02.613Z,2.28
2022-09-20T03:27:36.823Z,2.35
2022-09-20T03:30:18.984Z,1.92
2022-09-20T03:32:55.190Z,2.40
2022-09-20T03:35:59.893Z,2.30
2022-09-20T03:38:53.156Z,2.33
2022-09-20T03:41:44.937Z,2.13
2022-09-20T03:44:48.354Z,2.10
2022-09-20T03:47:34.003Z,1.88
2022-09-20T03:50:19.315Z,2.67
2022-09-20T03:52:57.673Z,1.92
2022-09-20T03:55:45.798Z,2.42
2022-09-20T03:58:50.553Z,2.15
2022-09-20T04:01:42.438Z,2.42
2022-09-20T04:04:34.719Z,2.38
2022-09-20T04:07:09.331Z,2.65
2022-09-20T04:09:39.520Z,2.47
2022-09-20T04:12:42.247Z,2.35
2022-09-20T04:15:38.431Z,2.00
2022-09-20T04:18:14.484Z,2.35
2022-09-20T04:21:08.343Z,1.90
2022-09-20T04:24:02.299Z,2.03
2022-09-20T04:26:32.700Z,2.67
2022-09-20T04:29:08.860Z,2.10
2022-09-20T04:31:54.072Z,2.20
2022-09-20T04:35:11.948Z,2.00
2022-09-20T04:37:41.842Z,2.45
2022-09-20T04:40:31.410Z,2.10
2022-09-20T04:43:07.956Z,2.33
2022-09-20T04:46:13.017Z,2.53
2022-09-20T04:49:04.858Z,2.28
2022-09-20T04:51:51.216Z,2.55
2022-09-20T04:54:57.986Z,2.55
2022-09-20T04:57:38.105Z,2.50
2022-09-20T05:00:17.422Z,2.17
2022-09-20T05:02:47.508Z,2.20
2022-09-20T05:05:41.281Z,2.42
2022-09-20T05:08:21.733Z,2.38
2022-09-20T05:11:10.363Z,2.20
2022-09-20T05:14:01.094Z,1.95
2022-09-20T05:17:07.193Z,2.33
2022-09-20T05:19:56.015Z,2.10
2022-09-20T05:22:26.321Z,2.20
2022-09-20T05:25:19.813Z,2.33
2022-09-20T05:27:57.291Z,2.40
2022-09-20T05:30:43.672Z,2.80
2022-09-20T05:33:25.984Z,2.72
2022-09-20T05:36:34.452Z,1.67
2022-09-20T05:39:27.973Z,2.30
2022-09-20T05:42:00.277Z,2.60
2022-09-20T05:44:45.761Z,2.47
2022-09-20T05:47:24.972Z,2.30
2022-09-20T05:50:13.391Z,2.10
2022-09-20T05:52:51.381Z,1.65
2022-09-20T05:55:39.337Z,2.28
2022-09-20T05:58:45.202Z,2.10
2022-09-20T06:01:22.782Z,2.33
2022-09-20T06:04:08.165Z,2.30
2022-09-20T06:06:55.044Z,2.40
2022-09-20T06:09:24.978Z,2.10
2022-09-20T06:12:01.699Z,2.50
2022-09-20T06:14:47.442Z,2.10
2022-09-20T06:17:20.869Z,2.53
2022-09-20T06:20:08.717Z,2.45
2022-09-20T06:22:45.281Z,2.40
2022-09-20T06:25:37.048Z,2.10
2022-09-20T06:28:04.419Z,2.30
2022-09-20T06:30:37.134Z,2.55
2022-09-20T06:33:17.963Z,2.78
2022-09-20T06:36:38.901Z,2.80
2022-09-20T06:39:54.385Z,2.58
2022-09-20T06:42:25.303Z,2.92
2022-09-20T06:44:54.496Z,2.60
2022-09-20T06:47:23.207Z,2.63
2022-09-20T06:49:50.487Z,2.45
2022-09-20T06:52:23.017Z,3.50
2022-09-20T06:54:53.869Z,2.75
2022-09-20T06:57:30.373Z,2.40
2022-09-20T06:59:57.697Z,3.10
2022-09-20T07:02:25.373Z,2.70
2022-09-20T07:04:59.229Z,3.00
2022-09-20T07:07:26.681Z,2.83
2022-09-20T07:09:53.940Z,2.67
2022-09-20T07:12:21.248Z,2.53
2022-09-20T07:14:50.628Z,2.83
2022-09-20T07:17:17.899Z,2.72
2022-09-20T07:19:45.141Z,2.70
2022-09-20T07:22:12.454Z,2.65
2022-09-20T07:24:41.178Z,2.75
2022-09-20T07:27:11.271Z,2.20
2022-09-20T07:29:38.562Z,2.90
2022-09-20T07:32:06.061Z,2.67
2022-09-20T07:34:33.350Z,2.38
2022-09-20T07:37:00.579Z,2.20
2022-09-20T07:39:28.172Z,2.50
2022-09-20T07:41:55.422Z,2.25
2022-09-20T07:44:25.719Z,2.55
2022-09-20T07:46:56.058Z,2.20
2022-09-20T07:49:24.395Z,2.05
2022-09-20T07:51:53.068Z,2.30
2022-09-20T07:54:21.293Z,2.25
2022-09-20T07:56:48.826Z,2.30
2022-09-20T07:59:16.168Z,2.03
2022-09-20T08:01:43.867Z,2.10
2022-09-20T08:04:11.722Z,2.10
2022-09-20T08:06:41.045Z,2.33
2022-09-20T08:09:11.067Z,2.10
2022-09-20T08:11:40.991Z,2.15
2022-09-20T08:14:13.202Z,1.88
2022-09-20T08:16:47.353Z,2.00
2022-09-20T08:19:23.050Z,2.42
2022-09-20T08:21:53.895Z,2.50
2022-09-20T08:24:21.905Z,2.67
2022-09-20T08:26:49.148Z,2.50
2022-09-20T08:29:16.670Z,3.47
2022-09-20T08:31:44.281Z,2.63
2022-09-20T08:34:14.005Z,2.80
2022-09-20T08:36:47.464Z,2.53
2022-09-20T08:42:28.159Z,2.40
2022-09-20T08:45:00.901Z,2.35
2022-09-20T08:47:35.775Z,2.22
2022-09-20T08:50:09.483Z,2.42
2022-09-20T08:52:40.281Z,2.30
2022-09-20T08:55:21.865Z,2.45
2022-09-20T08:57:55.256Z,2.20
2022-09-20T09:00:30.539Z,1.88
2022-09-20T09:03:01.095Z,1.83
2022-09-20T09:05:33.539Z,2.05
2022-09-20T09:08:22.206Z,2.08
2022-09-20T09:10:54.728Z,2.17
2022-09-20T09:13:43.476Z,2.22
2022-09-20T09:16:22.495Z,2.38
2022-09-20T09:18:51.823Z,2.17
2022-09-20T09:21:24.970Z,1.98
2022-09-20T09:24:01.141Z,2.38
2022-09-20T09:26:35.205Z,2.25
2022-09-20T09:29:24.526Z,2.00
2022-09-20T09:31:54.745Z,2.65
2022-09-20T09:34:38.772Z,2.38
2022-09-20T09:37:06.132Z,2.45
2022-09-20T09:39:38.238Z,2.05
2022-09-20T09:42:23.855Z,2.00
2022-09-20T09:44:51.281Z,2.45
2022-09-20T09:47:37.865Z,2.15
2022-09-20T09:50:09.688Z,2.28
2022-09-20T09:52:37.327Z,2.80
2022-09-20T09:55:06.012Z,2.05
2022-09-20T09:57:36.639Z,2.30
2022-09-20T10:00:21.558Z,2.40
2022-09-20T10:03:04.357Z,2.08
2022-09-20T10:05:34.671Z,2.00
2022-09-20T10:08:31.296Z,2.25
2022-09-20T10:11:21.909Z,2.00
2022-09-20T10:14:17.722Z,2.17
2022-09-20T10:16:51.410Z,2.20
2022-09-20T10:19:43.190Z,2.10
2022-09-20T10:23:06.827Z,2.00
2022-09-20T10:25:36.578Z,2.27
2022-09-20T10:28:12.872Z,2.03
2022-09-20T10:31:35.683Z,1.98
2022-09-20T10:34:27.195Z,2.38
2022-09-20T10:36:58.109Z,2.00
2022-09-20T10:39:48.582Z,2.10
2022-09-20T10:42:37.303Z,2.00
2022-09-20T10:45:50.824Z,2.05
2022-09-20T10:48:18.142Z,2.15
2022-09-20T10:50:51.759Z,2.10
2022-09-20T10:53:39.745Z,2.22
2022-09-20T10:56:30.837Z,2.30
2022-09-20T10:59:38.606Z,2.20
2022-09-20T11:02:22.396Z,2.03
2022-09-20T11:05:32.259Z,1.92
2022-09-20T11:08:05.345Z,2.58
2022-09-20T11:10:45.851Z,2.17
2022-09-20T11:13:30.467Z,2.08
2022-09-20T11:16:05.834Z,2.80
2022-09-20T11:18:39.263Z,1.90
2022-09-20T11:21:28.953Z,2.05
2022-09-20T11:24:05.467Z,2.40
2022-09-20T11:26:44.892Z,2.55
2022-09-20T11:29:28.266Z,2.75
2022-09-20T11:32:19.124Z,2.20
2022-09-20T11:34:57.383Z,2.15
2022-09-20T11:37:30.881Z,2.30
2022-09-20T11:40:10.038Z,2.38
2022-09-20T11:42:41.299Z,4.32
2022-09-20T11:45:12.514Z,3.38
2022-09-20T11:47:55.012Z,3.38
2022-09-20T11:53:17.497Z,3.00
2022-09-20T11:55:54.395Z,2.63
2022-09-20T11:58:22.434Z,3.10
2022-09-20T12:00:54.513Z,2.50
2022-09-20T12:03:54.627Z,2.60
2022-09-20T12:06:35.262Z,3.17
2022-09-20T12:09:06.529Z,2.63
2022-09-20T12:11:38.951Z,2.10
2022-09-20T12:14:18.396Z,2.10
2022-09-20T12:16:48.642Z,2.88
2022-09-20T12:19:32.345Z,2.15
2022-09-20T12:22:04.173Z,2.53
2022-09-20T12:24:36.503Z,2.47
2022-09-20T12:27:29.273Z,2.35
2022-09-20T12:30:22.005Z,2.13
2022-09-20T12:32:52.582Z,2.08
2022-09-20T12:35:39.147Z,2.15
2022-09-20T12:38:21.463Z,2.30
2022-09-20T12:41:10.318Z,2.10
2022-09-20T12:43:49.703Z,2.40
2022-09-20T12:46:30.018Z,1.70
2022-09-20T12:49:35.969Z,2.50
2022-09-20T12:52:22.365Z,2.40
2022-09-20T12:54:56.324Z,2.08
2022-09-20T12:57:32.376Z,2.55
2022-09-20T13:00:02.886Z,2.20
2022-09-20T13:02:53.000Z,1.80
2022-09-20T13:05:33.013Z,2.00
2022-09-20T13:08:20.874Z,1.75
2022-09-20T13:10:53.798Z,2.25
2022-09-20T13:16:29.267Z,2.20
2022-09-20T13:19:12.260Z,2.05
2022-09-20T13:22:08.066Z,2.22
2022-09-20T13:24:45.116Z,2.28
2022-09-20T13:27:19.776Z,2.05
2022-09-20T13:29:47.367Z,2.20
2022-09-20T13:32:28.955Z,2.47
2022-09-20T13:35:14.713Z,2.15
2022-09-20T13:37:45.005Z,1.98
2022-09-20T13:40:19.973Z,2.00
2022-09-20T13:42:50.308Z,2.38
2022-09-20T13:45:19.463Z,2.08
2022-09-20T13:47:55.080Z,1.83
2022-09-20T13:50:33.653Z,2.03
2022-09-20T13:53:27.909Z,3.13
2022-09-20T13:56:01.734Z,1.75
2022-09-20T13:58:32.051Z,2.03
2022-09-20T14:01:03.260Z,1.73
2022-09-20T14:03:33.460Z,2.67
2022-09-20T14:06:04.320Z,1.90
2022-09-20T14:08:43.334Z,1.70
2022-09-20T14:11:17.713Z,1.98
2022-09-20T14:13:48.774Z,1.83
2022-09-20T14:16:18.817Z,1.70
2022-09-20T14:18:48.039Z,1.58
2022-09-20T14:21:22.742Z,1.70
2022-09-20T14:23:58.286Z,1.70
2022-09-20T14:26:36.694Z,2.10
2022-09-20T14:29:34.858Z,1.80
2022-09-20T14:32:11.672Z,1.48
2022-09-20T14:34:40.791Z,1.90
2022-09-20T14:37:25.762Z,1.70
2022-09-20T14:40:18.789Z,1.70
2022-09-20T14:42:48.212Z,1.92
2022-09-20T14:45:36.831Z,1.58
2022-09-20T14:48:26.776Z,1.85
2022-09-20T14:51:18.911Z,1.80
2022-09-20T14:53:49.763Z,1.45
2022-09-20T14:56:27.104Z,1.67
2022-09-20T14:59:19.365Z,1.70
2022-09-20T15:01:57.239Z,1.75
2022-09-20T15:04:28.155Z,1.60
2022-09-20T15:06:57.021Z,1.73
2022-09-20T15:09:24.399Z,1.60
2022-09-20T15:12:12.271Z,2.22
2022-09-20T15:14:41.445Z,2.08
2022-09-20T15:17:20.301Z,1.63
2022-09-20T15:19:49.303Z,1.52
2022-09-20T15:22:16.720Z,1.70
2022-09-20T15:24:44.211Z,1.58
2022-09-20T15:27:12.363Z,1.60
2022-09-20T15:29:39.992Z,1.60
2022-09-20T15:32:10.464Z,1.70
2022-09-20T15:34:38.361Z,1.75
2022-09-20T15:37:05.640Z,1.48
2022-09-20T15:39:32.942Z,2.00
2022-09-20T15:42:00.333Z,1.58
2022-09-20T15:44:27.582Z,1.65
2022-09-20T15:46:55.072Z,1.70
2022-09-20T15:49:22.481Z,1.85
2022-09-20T15:51:50.490Z,1.50
2022-09-20T15:54:17.991Z,1.65
2022-09-20T15:56:45.286Z,1.40
2022-09-20T15:59:13.382Z,1.80
2022-09-20T16:01:42.867Z,1.52
2022-09-20T16:04:15.701Z,1.33
2022-09-20T16:09:11.884Z,1.60
2022-09-20T16:11:39.928Z,1.70
2022-09-20T16:14:07.731Z,1.63
2022-09-20T16:16:39.980Z,1.63
2022-09-20T16:19:23.790Z,1.70
2022-09-20T16:24:28.621Z,1.73
2022-09-20T16:26:56.682Z,1.67
2022-09-20T16:29:25.986Z,1.50
2022-09-20T16:31:54.837Z,1.40
2022-09-20T16:34:32.218Z,1.50
2022-09-20T16:37:10.359Z,1.63
2022-09-20T16:39:38.109Z,1.60
2022-09-20T16:42:07.495Z,1.50
2022-09-20T16:44:39.588Z,1.40
2022-09-20T16:47:10.528Z,1.77
2022-09-20T16:49:38.455Z,1.52
2022-09-20T16:52:07.710Z,1.30
2022-09-20T16:54:35.664Z,1.50
2022-09-20T16:57:03.265Z,1.40
2022-09-20T16:59:30.884Z,1.50
2022-09-20T17:01:58.398Z,1.50
2022-09-20T17:04:25.740Z,1.40
2022-09-20T17:06:53.308Z,1.40
2022-09-20T17:09:20.957Z,1.25
2022-09-20T17:11:50.188Z,1.40
2022-09-20T17:14:20.349Z,1.77
2022-09-20T17:16:48.472Z,1.30
2022-09-20T17:19:18.744Z,1.60
2022-09-20T17:21:50.543Z,1.90
2022-09-20T17:24:22.590Z,1.57
2022-09-20T17:26:51.180Z,1.70
2022-09-20T17:29:20.144Z,1.58
2022-09-20T17:31:55.102Z,1.50
2022-09-20T17:34:24.580Z,1.80
2022-09-20T17:36:54.156Z,1.42
2022-09-20T17:39:21.480Z,1.52
2022-09-20T17:41:49.704Z,1.70
2022-09-20T17:44:17.712Z,1.85
2022-09-20T17:46:48.002Z,1.50
2022-09-20T17:49:21.034Z,1.60
2022-09-20T17:54:18.493Z,1.40
2022-09-20T17:56:50.650Z,1.50
2022-09-20T17:59:19.863Z,1.65
2022-09-20T18:01:50.167Z,1.70
2022-09-20T18:04:20.842Z,1.42
2022-09-20T18:06:50.251Z,1.60
2022-09-20T18:09:23.362Z,1.83
2022-09-20T18:11:53.071Z,1.50
2022-09-20T18:14:23.255Z,1.80
2022-09-20T18:16:56.262Z,1.65
2022-09-20T18:21:50.799Z,1.73
2022-09-20T18:24:18.099Z,2.00
2022-09-20T18:26:45.442Z,1.65
2022-09-20T18:29:16.716Z,1.98
2022-09-20T18:31:48.429Z,1.55
2022-09-20T18:34:20.244Z,1.73
2022-09-20T18:36:54.147Z,1.50
2022-09-20T18:39:35.362Z,1.65
2022-09-20T18:42:03.508Z,1.65
2022-09-20T18:44:33.651Z,1.52
2022-09-20T18:47:02.775Z,1.80
2022-09-20T18:49:30.579Z,1.63
2022-09-20T18:51:58.093Z,1.55
2022-09-20T18:54:25.560Z,1.52
2022-09-20T18:56:53.949Z,1.95
2022-09-20T18:59:26.622Z,1.70
2022-09-20T19:02:15.498Z,1.38
2022-09-20T19:05:18.382Z,1.80
2022-09-20T19:08:00.351Z,1.83
2022-09-20T19:10:54.585Z,1.98
2022-09-20T19:13:49.741Z,2.30
2022-09-20T19:16:20.109Z,2.08
2022-09-20T19:19:24.309Z,1.60
2022-09-20T19:22:36.524Z,2.17
2022-09-20T19:25:25.231Z,1.80
2022-09-20T19:27:53.529Z,1.70
2022-09-20T19:30:27.355Z,1.60
2022-09-20T19:33:34.387Z,2.20
2022-09-20T19:36:03.194Z,1.52
2022-09-20T19:39:14.754Z,1.55
2022-09-20T19:42:08.108Z,1.60
2022-09-20T19:44:41.059Z,1.73
2022-09-20T19:49:50.437Z,1.88
2022-09-20T19:52:18.346Z,1.85
2022-09-20T19:54:46.715Z,1.85
2022-09-20T19:57:23.096Z,1.58
2022-09-20T19:59:51.046Z,1.30
2022-09-20T20:02:18.904Z,1.67
2022-09-20T20:04:46.668Z,1.50
2022-09-20T20:07:52.567Z,2.03
2022-09-20T20:10:50.778Z,1.70
2022-09-20T20:14:00.941Z,1.58
2022-09-20T20:16:53.377Z,1.38
2022-09-20T20:19:51.307Z,1.67
2022-09-20T20:22:38.378Z,1.65
2022-09-20T20:25:26.416Z,1.85
2022-09-20T20:27:53.688Z,1.50
2022-09-20T20:30:20.898Z,1.40
2022-09-20T20:32:48.324Z,1.42
2022-09-20T20:35:22.976Z,2.00
2022-09-20T20:37:50.235Z,1.60
2022-09-20T20:40:17.596Z,1.80
2022-09-20T20:42:47.100Z,1.50
2022-09-20T20:45:14.602Z,1.55
2022-09-20T20:47:42.662Z,1.60
2022-09-20T20:50:12.759Z,1.55
2022-09-20T20:52:40.147Z,1.75
2022-09-20T20:55:10.026Z,1.40
2022-09-20T20:57:40.099Z,1.30
2022-09-20T21:00:08.183Z,1.60
2022-09-20T21:02:35.477Z,1.52
2022-09-20T21:05:04.235Z,1.50
2022-09-20T21:07:32.081Z,1.67
2022-09-20T21:09:59.387Z,1.50
2022-09-20T21:12:26.897Z,2.17
2022-09-20T21:14:54.120Z,1.70
2022-09-20T21:17:21.368Z,1.88
2022-09-20T21:19:48.841Z,1.58
2022-09-20T21:22:17.856Z,1.60
2022-09-20T21:24:50.410Z,1.50
2022-09-20T21:27:17.706Z,1.80
2022-09-20T21:29:44.948Z,1.55
2022-09-20T21:32:12.256Z,1.60
2022-09-20T21:34:39.573Z,1.70
2022-09-20T21:37:07.280Z,1.95
2022-09-20T21:39:34.617Z,2.17
2022-09-20T21:42:04.429Z,1.70
2022-09-20T21:44:32.418Z,1.60
2022-09-20T21:46:59.758Z,1.25
2022-09-20T21:49:27.068Z,1.40
2022-09-20T21:51:54.359Z,1.73
2022-09-20T21:54:28.670Z,1.40
2022-09-20T21:56:59.291Z,1.95
2022-09-20T21:59:26.906Z,1.90
2022-09-20T22:01:55.180Z,1.73
2022-09-20T22:04:23.169Z,1.95
2022-09-20T22:06:50.430Z,2.00
2022-09-20T22:09:19.194Z,1.88
2022-09-20T22:11:48.576Z,1.77
2022-09-20T22:14:19.150Z,2.28
2022-09-20T22:16:47.964Z,1.85
2022-09-20T22:19:17.202Z,1.77
2022-09-20T22:21:47.073Z,1.77
2022-09-20T22:24:15.447Z,1.90
2022-09-20T22:26:47.026Z,1.65
2022-09-20T22:29:15.786Z,1.67
2022-09-20T22:31:45.685Z,1.80
2022-09-20T22:34:18.612Z,1.92
2022-09-20T22:36:46.443Z,1.77
2022-09-20T22:39:14.189Z,1.92
2022-09-20T22:41:42.842Z,2.00
2022-09-20T22:44:11.404Z,1.77
2022-09-20T22:46:39.431Z,1.80
2022-09-20T22:49:08.602Z,1.65
2022-09-20T22:51:36.637Z,1.60
2022-09-20T22:54:09.983Z,1.85
2022-09-20T22:56:39.323Z,2.03
2022-09-20T22:59:09.151Z,1.77
2022-09-20T23:01:42.845Z,1.70
2022-09-20T23:04:16.590Z,1.85
2022-09-20T23:06:49.297Z,1.92
2022-09-20T23:09:18.864Z,1.77
2022-09-20T23:11:47.030Z,1.90
2022-09-20T23:14:20.037Z,2.20
2022-09-20T23:16:48.309Z,2.20
2022-09-20T23:19:16.162Z,2.08
2022-09-20T23:21:44.519Z,2.20
2022-09-20T23:24:14.083Z,1.83
2022-09-20T23:26:42.482Z,2.03
2022-09-20T23:29:11.995Z,2.10
2022-09-20T23:31:45.574Z,2.10
2022-09-20T23:34:15.137Z,2.08
2022-09-20T23:36:42.711Z,2.00
2022-09-20T23:39:11.733Z,2.03
2022-09-20T23:41:39.559Z,1.90
2022-09-20T23:44:09.891Z,2.38
2022-09-20T23:46:38.176Z,2.17
2022-09-20T23:49:06.758Z,1.98
2022-09-20T23:51:35.437Z,2.20
2022-09-20T23:54:03.411Z,2.40
2022-09-20T23:56:30.773Z,2.10
2022-09-20T23:58:58.051Z,2.25
